sensor_id;sensor_type;location;lat;lon;timestamp;P1;durP1;ratioP1;P2;durP2;ratioP2
74293;SDS011;64044;59.904;10.738;2023-04-24T00:00:28;1.20;;;1.08;;
74293;SDS011;64044;59.904;10.738;2023-04-24T00:02:53;3.55;;;1.23;;
74293;SDS011;64044;59.904;10.738;2023-04-24T00:05:22;1.48;;;1.23;;
74293;SDS011;64044;59.904;10.738;2023-04-24T00:07:48;1.10;;;1.00;;
74293;SDS011;64044;59.904;10.738;2023-04-24T00:10:13;1.45;;;1.15;;
74293;SDS011;64044;59.904;10.738;2023-04-24T00:12:39;1.50;;;1.38;;
74293;SDS011;64044;59.904;10.738;2023-04-24T00:15:05;2.22;;;1.50;;
74293;SDS011;64044;59.904;10.738;2023-04-24T00:17:31;1.73;;;1.45;;
74293;SDS011;64044;59.904;10.738;2023-04-24T00:19:57;1.35;;;1.00;;
74293;SDS011;64044;59.904;10.738;2023-04-24T00:22:27;1.30;;;1.20;;
74293;SDS011;64044;59.904;10.738;2023-04-24T00:24:54;1.88;;;1.38;;
74293;SDS011;64044;59.904;10.738;2023-04-24T00:27:19;1.60;;;1.00;;
74293;SDS011;64044;59.904;10.738;2023-04-24T00:29:45;1.58;;;1.42;;
74293;SDS011;64044;59.904;10.738;2023-04-24T00:32:11;3.75;;;1.63;;
74293;SDS011;64044;59.904;10.738;2023-04-24T00:34:37;2.00;;;1.30;;
74293;SDS011;64044;59.904;10.738;2023-04-24T00:37:02;3.53;;;2.08;;
74293;SDS011;64044;59.904;10.738;2023-04-24T00:39:28;2.17;;;1.80;;
74293;SDS011;64044;59.904;10.738;2023-04-24T00:41:54;2.65;;;1.50;;
74293;SDS011;64044;59.904;10.738;2023-04-24T00:44:20;3.55;;;1.58;;
74293;SDS011;64044;59.904;10.738;2023-04-24T00:46:46;1.70;;;1.27;;
74293;SDS011;64044;59.904;10.738;2023-04-24T00:49:16;1.85;;;1.60;;
74293;SDS011;64044;59.904;10.738;2023-04-24T00:51:43;1.45;;;1.17;;
74293;SDS011;64044;59.904;10.738;2023-04-24T00:54:10;3.70;;;1.42;;
74293;SDS011;64044;59.904;10.738;2023-04-24T00:56:37;1.42;;;1.13;;
74293;SDS011;64044;59.904;10.738;2023-04-24T00:59:03;1.90;;;1.20;;
74293;SDS011;64044;59.904;10.738;2023-04-24T01:01:30;1.40;;;1.30;;
74293;SDS011;64044;59.904;10.738;2023-04-24T01:03:55;2.50;;;1.67;;
74293;SDS011;64044;59.904;10.738;2023-04-24T01:06:22;2.25;;;1.52;;
74293;SDS011;64044;59.904;10.738;2023-04-24T01:08:52;2.13;;;1.73;;
74293;SDS011;64044;59.904;10.738;2023-04-24T01:11:18;3.33;;;1.83;;
74293;SDS011;64044;59.904;10.738;2023-04-24T01:13:44;2.28;;;1.83;;
74293;SDS011;64044;59.904;10.738;2023-04-24T01:16:10;2.00;;;1.38;;
74293;SDS011;64044;59.904;10.738;2023-04-24T01:18:36;1.70;;;1.42;;
74293;SDS011;64044;59.904;10.738;2023-04-24T01:21:03;1.83;;;1.42;;
74293;SDS011;64044;59.904;10.738;2023-04-24T01:23:29;2.35;;;1.90;;
74293;SDS011;64044;59.904;10.738;2023-04-24T01:25:55;1.77;;;1.45;;
74293;SDS011;64044;59.904;10.738;2023-04-24T01:28:21;1.77;;;1.58;;
74293;SDS011;64044;59.904;10.738;2023-04-24T01:30:47;1.23;;;1.10;;
74293;SDS011;64044;59.904;10.738;2023-04-24T01:33:13;1.10;;;1.00;;
74293;SDS011;64044;59.904;10.738;2023-04-24T01:35:39;1.17;;;1.08;;
74293;SDS011;64044;59.904;10.738;2023-04-24T01:38:05;3.75;;;1.13;;
74293;SDS011;64044;59.904;10.738;2023-04-24T01:40:32;2.25;;;1.27;;
74293;SDS011;64044;59.904;10.738;2023-04-24T01:42:58;1.50;;;1.30;;
74293;SDS011;64044;59.904;10.738;2023-04-24T01:45:24;1.10;;;1.00;;
74293;SDS011;64044;59.904;10.738;2023-04-24T01:47:50;1.42;;;1.00;;
74293;SDS011;64044;59.904;10.738;2023-04-24T01:50:16;1.02;;;0.88;;
74293;SDS011;64044;59.904;10.738;2023-04-24T01:52:42;1.25;;;1.17;;
74293;SDS011;64044;59.904;10.738;2023-04-24T01:55:09;1.20;;;1.00;;
74293;SDS011;64044;59.904;10.738;2023-04-24T01:57:35;2.45;;;1.40;;
74293;SDS011;64044;59.904;10.738;2023-04-24T02:00:03;1.20;;;1.08;;
74293;SDS011;64044;59.904;10.738;2023-04-24T02:02:29;1.35;;;1.02;;
74293;SDS011;64044;59.904;10.738;2023-04-24T02:04:56;1.13;;;0.85;;
74293;SDS011;64044;59.904;10.738;2023-04-24T02:07:47;1.20;;;0.80;;
74293;SDS011;64044;59.904;10.738;2023-04-24T02:10:13;2.65;;;1.35;;
74293;SDS011;64044;59.904;10.738;2023-04-24T02:12:39;1.23;;;0.70;;
74293;SDS011;64044;59.904;10.738;2023-04-24T02:15:05;1.70;;;0.90;;
74293;SDS011;64044;59.904;10.738;2023-04-24T02:17:31;0.90;;;0.80;;
74293;SDS011;64044;59.904;10.738;2023-04-24T02:19:57;0.82;;;0.82;;
74293;SDS011;64044;59.904;10.738;2023-04-24T02:22:22;1.17;;;1.00;;
74293;SDS011;64044;59.904;10.738;2023-04-24T02:24:48;0.68;;;0.68;;
74293;SDS011;64044;59.904;10.738;2023-04-24T02:27:14;1.52;;;0.90;;
74293;SDS011;64044;59.904;10.738;2023-04-24T02:29:40;0.70;;;0.55;;
74293;SDS011;64044;59.904;10.738;2023-04-24T02:32:06;0.60;;;0.60;;
74293;SDS011;64044;59.904;10.738;2023-04-24T02:34:31;0.50;;;0.50;;
74293;SDS011;64044;59.904;10.738;2023-04-24T02:36:57;0.65;;;0.65;;
74293;SDS011;64044;59.904;10.738;2023-04-24T02:39:23;0.88;;;0.77;;
74293;SDS011;64044;59.904;10.738;2023-04-24T02:41:48;0.52;;;0.50;;
74293;SDS011;64044;59.904;10.738;2023-04-24T02:44:14;0.68;;;0.50;;
74293;SDS011;64044;59.904;10.738;2023-04-24T02:46:40;0.35;;;0.35;;
74293;SDS011;64044;59.904;10.738;2023-04-24T02:49:06;0.30;;;0.30;;
74293;SDS011;64044;59.904;10.738;2023-04-24T02:51:32;0.40;;;0.30;;
74293;SDS011;64044;59.904;10.738;2023-04-24T02:53:58;0.50;;;0.30;;
74293;SDS011;64044;59.904;10.738;2023-04-24T02:56:24;0.43;;;0.30;;
74293;SDS011;64044;59.904;10.738;2023-04-24T02:58:50;0.10;;;0.10;;
74293;SDS011;64044;59.904;10.738;2023-04-24T03:01:15;1.67;;;0.30;;
74293;SDS011;64044;59.904;10.738;2023-04-24T03:03:42;0.20;;;0.20;;
74293;SDS011;64044;59.904;10.738;2023-04-24T03:06:07;0.20;;;0.20;;
74293;SDS011;64044;59.904;10.738;2023-04-24T03:08:33;0.77;;;0.32;;
74293;SDS011;64044;59.904;10.738;2023-04-24T03:10:59;0.15;;;0.15;;
74293;SDS011;64044;59.904;10.738;2023-04-24T03:13:25;0.10;;;0.10;;
74293;SDS011;64044;59.904;10.738;2023-04-24T03:15:51;0.20;;;0.20;;
74293;SDS011;64044;59.904;10.738;2023-04-24T03:18:17;0.22;;;0.22;;
74293;SDS011;64044;59.904;10.738;2023-04-24T03:20:45;0.20;;;0.20;;
74293;SDS011;64044;59.904;10.738;2023-04-24T03:23:11;0.30;;;0.20;;
74293;SDS011;64044;59.904;10.738;2023-04-24T03:25:37;0.30;;;0.30;;
74293;SDS011;64044;59.904;10.738;2023-04-24T03:28:02;0.15;;;0.10;;
74293;SDS011;64044;59.904;10.738;2023-04-24T03:30:28;0.28;;;0.20;;
74293;SDS011;64044;59.904;10.738;2023-04-24T03:32:54;0.22;;;0.22;;
74293;SDS011;64044;59.904;10.738;2023-04-24T03:35:20;0.77;;;0.30;;
74293;SDS011;64044;59.904;10.738;2023-04-24T03:37:47;1.75;;;0.20;;
74293;SDS011;64044;59.904;10.738;2023-04-24T03:40:12;0.40;;;0.40;;
74293;SDS011;64044;59.904;10.738;2023-04-24T03:42:38;0.30;;;0.30;;
74293;SDS011;64044;59.904;10.738;2023-04-24T03:45:04;0.32;;;0.20;;
74293;SDS011;64044;59.904;10.738;2023-04-24T03:47:30;0.50;;;0.32;;
74293;SDS011;64044;59.904;10.738;2023-04-24T03:49:56;0.45;;;0.45;;
74293;SDS011;64044;59.904;10.738;2023-04-24T03:52:22;0.65;;;0.40;;
74293;SDS011;64044;59.904;10.738;2023-04-24T03:54:47;0.20;;;0.20;;
74293;SDS011;64044;59.904;10.738;2023-04-24T03:57:13;0.28;;;0.20;;
74293;SDS011;64044;59.904;10.738;2023-04-24T03:59:39;0.43;;;0.28;;
74293;SDS011;64044;59.904;10.738;2023-04-24T04:02:04;0.30;;;0.30;;
74293;SDS011;64044;59.904;10.738;2023-04-24T04:04:30;0.20;;;0.20;;
74293;SDS011;64044;59.904;10.738;2023-04-24T04:06:56;0.20;;;0.20;;
74293;SDS011;64044;59.904;10.738;2023-04-24T04:09:21;0.10;;;0.10;;
74293;SDS011;64044;59.904;10.738;2023-04-24T04:11:47;1.27;;;0.32;;
74293;SDS011;64044;59.904;10.738;2023-04-24T04:14:13;0.20;;;0.20;;
74293;SDS011;64044;59.904;10.738;2023-04-24T04:16:38;0.63;;;0.20;;
74293;SDS011;64044;59.904;10.738;2023-04-24T04:19:04;0.20;;;0.20;;
74293;SDS011;64044;59.904;10.738;2023-04-24T04:21:30;0.45;;;0.20;;
74293;SDS011;64044;59.904;10.738;2023-04-24T04:23:57;0.65;;;0.13;;
74293;SDS011;64044;59.904;10.738;2023-04-24T04:26:22;1.20;;;0.45;;
74293;SDS011;64044;59.904;10.738;2023-04-24T04:28:51;0.15;;;0.10;;
74293;SDS011;64044;59.904;10.738;2023-04-24T04:31:17;0.30;;;0.20;;
74293;SDS011;64044;59.904;10.738;2023-04-24T04:33:44;0.10;;;0.10;;
74293;SDS011;64044;59.904;10.738;2023-04-24T04:36:10;0.45;;;0.10;;
74293;SDS011;64044;59.904;10.738;2023-04-24T04:38:37;1.05;;;0.10;;
74293;SDS011;64044;59.904;10.738;2023-04-24T04:41:03;0.52;;;0.20;;
74293;SDS011;64044;59.904;10.738;2023-04-24T04:43:28;0.43;;;0.20;;
74293;SDS011;64044;59.904;10.738;2023-04-24T04:45:55;0.15;;;0.15;;
74293;SDS011;64044;59.904;10.738;2023-04-24T04:48:22;0.40;;;0.40;;
74293;SDS011;64044;59.904;10.738;2023-04-24T04:50:48;0.85;;;0.50;;
74293;SDS011;64044;59.904;10.738;2023-04-24T04:53:14;0.30;;;0.30;;
74293;SDS011;64044;59.904;10.738;2023-04-24T04:55:40;0.38;;;0.38;;
74293;SDS011;64044;59.904;10.738;2023-04-24T04:58:06;0.20;;;0.20;;
74293;SDS011;64044;59.904;10.738;2023-04-24T05:00:32;0.20;;;0.20;;
74293;SDS011;64044;59.904;10.738;2023-04-24T05:03:00;0.20;;;0.20;;
74293;SDS011;64044;59.904;10.738;2023-04-24T05:05:26;1.02;;;0.30;;
74293;SDS011;64044;59.904;10.738;2023-04-24T05:07:52;0.70;;;0.20;;
74293;SDS011;64044;59.904;10.738;2023-04-24T05:10:18;0.43;;;0.30;;
74293;SDS011;64044;59.904;10.738;2023-04-24T05:12:43;0.17;;;0.10;;
74293;SDS011;64044;59.904;10.738;2023-04-24T05:15:09;0.73;;;0.60;;
74293;SDS011;64044;59.904;10.738;2023-04-24T05:17:36;2.10;;;0.50;;
74293;SDS011;64044;59.904;10.738;2023-04-24T05:20:02;0.93;;;0.28;;
74293;SDS011;64044;59.904;10.738;2023-04-24T05:22:30;0.13;;;0.13;;
74293;SDS011;64044;59.904;10.738;2023-04-24T05:24:56;0.22;;;0.10;;
74293;SDS011;64044;59.904;10.738;2023-04-24T05:27:22;1.30;;;0.20;;
74293;SDS011;64044;59.904;10.738;2023-04-24T05:29:48;0.38;;;0.10;;
74293;SDS011;64044;59.904;10.738;2023-04-24T05:32:14;0.10;;;0.10;;
74293;SDS011;64044;59.904;10.738;2023-04-24T05:34:40;0.10;;;0.10;;
74293;SDS011;64044;59.904;10.738;2023-04-24T05:37:05;0.30;;;0.20;;
74293;SDS011;64044;59.904;10.738;2023-04-24T05:39:33;0.30;;;0.20;;
74293;SDS011;64044;59.904;10.738;2023-04-24T05:42:00;1.13;;;0.20;;
74293;SDS011;64044;59.904;10.738;2023-04-24T05:44:26;0.20;;;0.20;;
74293;SDS011;64044;59.904;10.738;2023-04-24T05:46:52;0.85;;;0.70;;
74293;SDS011;64044;59.904;10.738;2023-04-24T05:49:20;0.35;;;0.20;;
74293;SDS011;64044;59.904;10.738;2023-04-24T05:51:45;0.52;;;0.32;;
74293;SDS011;64044;59.904;10.738;2023-04-24T05:54:11;0.60;;;0.32;;
74293;SDS011;64044;59.904;10.738;2023-04-24T05:56:37;0.20;;;0.20;;
74293;SDS011;64044;59.904;10.738;2023-04-24T05:59:03;1.00;;;0.35;;
74293;SDS011;64044;59.904;10.738;2023-04-24T06:01:29;0.98;;;0.35;;
74293;SDS011;64044;59.904;10.738;2023-04-24T06:03:56;0.68;;;0.35;;
74293;SDS011;64044;59.904;10.738;2023-04-24T06:06:23;0.30;;;0.30;;
74293;SDS011;64044;59.904;10.738;2023-04-24T06:08:49;1.42;;;0.60;;
74293;SDS011;64044;59.904;10.738;2023-04-24T06:11:15;0.47;;;0.35;;
74293;SDS011;64044;59.904;10.738;2023-04-24T06:13:41;0.20;;;0.20;;
74293;SDS011;64044;59.904;10.738;2023-04-24T06:16:06;0.40;;;0.32;;
74293;SDS011;64044;59.904;10.738;2023-04-24T06:18:32;0.30;;;0.20;;
74293;SDS011;64044;59.904;10.738;2023-04-24T06:20:58;2.28;;;0.30;;
74293;SDS011;64044;59.904;10.738;2023-04-24T06:23:24;0.60;;;0.30;;
74293;SDS011;64044;59.904;10.738;2023-04-24T06:25:50;0.68;;;0.30;;
74293;SDS011;64044;59.904;10.738;2023-04-24T06:28:16;0.40;;;0.35;;
74293;SDS011;64044;59.904;10.738;2023-04-24T06:30:42;0.30;;;0.20;;
74293;SDS011;64044;59.904;10.738;2023-04-24T06:33:08;1.38;;;0.52;;
74293;SDS011;64044;59.904;10.738;2023-04-24T06:35:35;0.40;;;0.40;;
74293;SDS011;64044;59.904;10.738;2023-04-24T06:38:01;0.63;;;0.50;;
74293;SDS011;64044;59.904;10.738;2023-04-24T06:40:27;0.20;;;0.20;;
74293;SDS011;64044;59.904;10.738;2023-04-24T06:42:52;1.15;;;0.40;;
74293;SDS011;64044;59.904;10.738;2023-04-24T06:45:18;0.82;;;0.50;;
74293;SDS011;64044;59.904;10.738;2023-04-24T06:47:44;2.03;;;0.50;;
74293;SDS011;64044;59.904;10.738;2023-04-24T06:50:09;1.13;;;0.60;;
74293;SDS011;64044;59.904;10.738;2023-04-24T06:52:36;1.83;;;0.57;;
74293;SDS011;64044;59.904;10.738;2023-04-24T06:55:02;1.58;;;0.55;;
74293;SDS011;64044;59.904;10.738;2023-04-24T06:57:29;1.23;;;0.40;;
74293;SDS011;64044;59.904;10.738;2023-04-24T06:59:55;2.80;;;0.40;;
74293;SDS011;64044;59.904;10.738;2023-04-24T07:02:21;2.42;;;0.50;;
74293;SDS011;64044;59.904;10.738;2023-04-24T07:04:47;1.50;;;0.68;;
74293;SDS011;64044;59.904;10.738;2023-04-24T07:07:13;0.50;;;0.30;;
74293;SDS011;64044;59.904;10.738;2023-04-24T07:09:40;0.20;;;0.20;;
74293;SDS011;64044;59.904;10.738;2023-04-24T07:12:09;2.38;;;0.30;;
74293;SDS011;64044;59.904;10.738;2023-04-24T07:14:38;0.30;;;0.30;;
74293;SDS011;64044;59.904;10.738;2023-04-24T07:17:04;0.43;;;0.43;;
74293;SDS011;64044;59.904;10.738;2023-04-24T07:19:31;0.73;;;0.63;;
74293;SDS011;64044;59.904;10.738;2023-04-24T07:21:58;0.30;;;0.30;;
74293;SDS011;64044;59.904;10.738;2023-04-24T07:24:24;0.47;;;0.47;;
74293;SDS011;64044;59.904;10.738;2023-04-24T07:26:51;0.82;;;0.50;;
74293;SDS011;64044;59.904;10.738;2023-04-24T07:29:17;0.65;;;0.60;;
74293;SDS011;64044;59.904;10.738;2023-04-24T07:31:44;0.85;;;0.57;;
74293;SDS011;64044;59.904;10.738;2023-04-24T07:34:10;0.98;;;0.55;;
74293;SDS011;64044;59.904;10.738;2023-04-24T07:36:35;0.50;;;0.50;;
74293;SDS011;64044;59.904;10.738;2023-04-24T07:39:03;1.15;;;0.55;;
74293;SDS011;64044;59.904;10.738;2023-04-24T07:41:32;0.52;;;0.52;;
74293;SDS011;64044;59.904;10.738;2023-04-24T07:43:58;1.15;;;0.80;;
74293;SDS011;64044;59.904;10.738;2023-04-24T07:46:24;1.65;;;0.40;;
74293;SDS011;64044;59.904;10.738;2023-04-24T07:48:50;0.50;;;0.50;;
74293;SDS011;64044;59.904;10.738;2023-04-24T07:51:15;1.00;;;0.45;;
74293;SDS011;64044;59.904;10.738;2023-04-24T07:53:42;0.35;;;0.35;;
74293;SDS011;64044;59.904;10.738;2023-04-24T07:56:08;1.27;;;0.70;;
74293;SDS011;64044;59.904;10.738;2023-04-24T07:58:34;0.77;;;0.60;;
74293;SDS011;64044;59.904;10.738;2023-04-24T08:01:00;1.10;;;0.77;;
74293;SDS011;64044;59.904;10.738;2023-04-24T08:03:25;2.35;;;0.63;;
74293;SDS011;64044;59.904;10.738;2023-04-24T08:05:51;0.85;;;0.60;;
74293;SDS011;64044;59.904;10.738;2023-04-24T08:08:17;0.68;;;0.50;;
74293;SDS011;64044;59.904;10.738;2023-04-24T08:10:45;0.70;;;0.68;;
74293;SDS011;64044;59.904;10.738;2023-04-24T08:13:10;1.05;;;0.77;;
74293;SDS011;64044;59.904;10.738;2023-04-24T08:15:36;2.08;;;0.88;;
74293;SDS011;64044;59.904;10.738;2023-04-24T08:18:02;0.70;;;0.70;;
74293;SDS011;64044;59.904;10.738;2023-04-24T08:20:28;0.65;;;0.60;;
74293;SDS011;64044;59.904;10.738;2023-04-24T08:22:54;1.88;;;0.38;;
74293;SDS011;64044;59.904;10.738;2023-04-24T08:25:20;2.13;;;0.75;;
74293;SDS011;64044;59.904;10.738;2023-04-24T08:27:48;0.80;;;0.50;;
74293;SDS011;64044;59.904;10.738;2023-04-24T08:30:13;4.07;;;0.60;;
74293;SDS011;64044;59.904;10.738;2023-04-24T08:32:39;1.70;;;0.52;;
74293;SDS011;64044;59.904;10.738;2023-04-24T08:35:05;0.40;;;0.40;;
74293;SDS011;64044;59.904;10.738;2023-04-24T08:37:34;0.63;;;0.57;;
74293;SDS011;64044;59.904;10.738;2023-04-24T08:40:00;0.90;;;0.75;;
74293;SDS011;64044;59.904;10.738;2023-04-24T08:42:30;0.45;;;0.40;;
74293;SDS011;64044;59.904;10.738;2023-04-24T08:44:58;0.98;;;0.60;;
74293;SDS011;64044;59.904;10.738;2023-04-24T08:47:24;0.98;;;0.57;;
74293;SDS011;64044;59.904;10.738;2023-04-24T08:49:52;0.70;;;0.70;;
74293;SDS011;64044;59.904;10.738;2023-04-24T08:52:19;2.50;;;0.70;;
74293;SDS011;64044;59.904;10.738;2023-04-24T08:54:46;2.15;;;0.50;;
74293;SDS011;64044;59.904;10.738;2023-04-24T08:57:12;0.60;;;0.60;;
74293;SDS011;64044;59.904;10.738;2023-04-24T08:59:39;2.28;;;0.75;;
74293;SDS011;64044;59.904;10.738;2023-04-24T09:02:08;1.30;;;0.75;;
74293;SDS011;64044;59.904;10.738;2023-04-24T09:04:36;1.02;;;0.80;;
74293;SDS011;64044;59.904;10.738;2023-04-24T09:07:02;1.45;;;0.90;;
74293;SDS011;64044;59.904;10.738;2023-04-24T09:09:31;1.38;;;0.60;;
74293;SDS011;64044;59.904;10.738;2023-04-24T09:11:58;0.70;;;0.70;;
74293;SDS011;64044;59.904;10.738;2023-04-24T09:14:24;1.10;;;0.75;;
74293;SDS011;64044;59.904;10.738;2023-04-24T09:16:50;0.80;;;0.70;;
74293;SDS011;64044;59.904;10.738;2023-04-24T09:19:16;2.63;;;1.73;;
74293;SDS011;64044;59.904;10.738;2023-04-24T09:21:42;2.53;;;1.45;;
74293;SDS011;64044;59.904;10.738;2023-04-24T09:24:18;1.25;;;0.80;;
74293;SDS011;64044;59.904;10.738;2023-04-24T09:26:47;1.90;;;1.08;;
74293;SDS011;64044;59.904;10.738;2023-04-24T09:29:14;1.83;;;1.10;;
74293;SDS011;64044;59.904;10.738;2023-04-24T09:31:41;0.82;;;0.68;;
74293;SDS011;64044;59.904;10.738;2023-04-24T09:34:08;2.35;;;0.77;;
74293;SDS011;64044;59.904;10.738;2023-04-24T09:36:38;1.20;;;0.70;;
74293;SDS011;64044;59.904;10.738;2023-04-24T09:39:12;0.80;;;0.77;;
74293;SDS011;64044;59.904;10.738;2023-04-24T09:41:47;1.10;;;1.00;;
74293;SDS011;64044;59.904;10.738;2023-04-24T09:44:15;0.70;;;0.70;;
74293;SDS011;64044;59.904;10.738;2023-04-24T09:46:42;1.10;;;0.52;;
74293;SDS011;64044;59.904;10.738;2023-04-24T09:49:15;2.47;;;0.60;;
74293;SDS011;64044;59.904;10.738;2023-04-24T09:51:45;0.95;;;0.70;;
74293;SDS011;64044;59.904;10.738;2023-04-24T09:54:14;1.63;;;0.70;;
74293;SDS011;64044;59.904;10.738;2023-04-24T09:56:44;4.33;;;1.00;;
74293;SDS011;64044;59.904;10.738;2023-04-24T09:59:12;1.50;;;0.60;;
74293;SDS011;64044;59.904;10.738;2023-04-24T10:01:41;1.38;;;0.85;;
74293;SDS011;64044;59.904;10.738;2023-04-24T10:04:28;0.50;;;0.50;;
74293;SDS011;64044;59.904;10.738;2023-04-24T10:06:54;0.80;;;0.50;;
74293;SDS011;64044;59.904;10.738;2023-04-24T10:09:22;1.00;;;0.40;;
74293;SDS011;64044;59.904;10.738;2023-04-24T10:11:50;0.32;;;0.30;;
74293;SDS011;64044;59.904;10.738;2023-04-24T10:14:17;0.30;;;0.30;;
74293;SDS011;64044;59.904;10.738;2023-04-24T10:16:44;0.55;;;0.50;;
74293;SDS011;64044;59.904;10.738;2023-04-24T10:19:14;1.30;;;0.55;;
74293;SDS011;64044;59.904;10.738;2023-04-24T10:21:41;2.13;;;1.15;;
74293;SDS011;64044;59.904;10.738;2023-04-24T10:24:17;0.80;;;0.50;;
74293;SDS011;64044;59.904;10.738;2023-04-24T10:26:46;4.78;;;0.80;;
74293;SDS011;64044;59.904;10.738;2023-04-24T10:29:16;1.90;;;0.90;;
74293;SDS011;64044;59.904;10.738;2023-04-24T10:34:36;2.20;;;0.80;;
74293;SDS011;64044;59.904;10.738;2023-04-24T10:37:02;1.00;;;0.50;;
74293;SDS011;64044;59.904;10.738;2023-04-24T10:39:28;0.30;;;0.30;;
74293;SDS011;64044;59.904;10.738;2023-04-24T10:41:55;0.40;;;0.35;;
74293;SDS011;64044;59.904;10.738;2023-04-24T10:44:22;1.27;;;0.73;;
74293;SDS011;64044;59.904;10.738;2023-04-24T10:46:53;0.55;;;0.40;;
74293;SDS011;64044;59.904;10.738;2023-04-24T10:49:32;0.68;;;0.47;;
74293;SDS011;64044;59.904;10.738;2023-04-24T10:52:02;2.88;;;0.90;;
74293;SDS011;64044;59.904;10.738;2023-04-24T10:54:44;0.50;;;0.50;;
74293;SDS011;64044;59.904;10.738;2023-04-24T10:57:28;4.17;;;1.00;;
74293;SDS011;64044;59.904;10.738;2023-04-24T11:00:15;1.38;;;0.40;;
74293;SDS011;64044;59.904;10.738;2023-04-24T11:02:45;2.03;;;0.40;;
74293;SDS011;64044;59.904;10.738;2023-04-24T11:05:15;1.15;;;0.73;;
74293;SDS011;64044;59.904;10.738;2023-04-24T11:10:43;0.35;;;0.35;;
74293;SDS011;64044;59.904;10.738;2023-04-24T11:13:10;0.80;;;0.50;;
74293;SDS011;64044;59.904;10.738;2023-04-24T11:15:40;0.52;;;0.38;;
74293;SDS011;64044;59.904;10.738;2023-04-24T11:18:11;2.38;;;1.05;;
74293;SDS011;64044;59.904;10.738;2023-04-24T11:23:07;0.50;;;0.30;;
74293;SDS011;64044;59.904;10.738;2023-04-24T11:25:33;0.88;;;0.70;;
74293;SDS011;64044;59.904;10.738;2023-04-24T11:28:04;0.57;;;0.30;;
74293;SDS011;64044;59.904;10.738;2023-04-24T11:30:31;4.38;;;1.10;;
74293;SDS011;64044;59.904;10.738;2023-04-24T11:33:02;1.63;;;0.55;;
74293;SDS011;64044;59.904;10.738;2023-04-24T11:35:29;0.60;;;0.40;;
74293;SDS011;64044;59.904;10.738;2023-04-24T11:38:02;0.30;;;0.30;;
74293;SDS011;64044;59.904;10.738;2023-04-24T11:40:28;1.10;;;0.30;;
74293;SDS011;64044;59.904;10.738;2023-04-24T11:42:54;0.40;;;0.40;;
74293;SDS011;64044;59.904;10.738;2023-04-24T11:45:23;0.32;;;0.30;;
74293;SDS011;64044;59.904;10.738;2023-04-24T11:47:51;0.65;;;0.30;;
74293;SDS011;64044;59.904;10.738;2023-04-24T11:50:18;1.00;;;0.75;;
74293;SDS011;64044;59.904;10.738;2023-04-24T11:52:45;0.50;;;0.50;;
74293;SDS011;64044;59.904;10.738;2023-04-24T11:57:47;0.40;;;0.30;;
74293;SDS011;64044;59.904;10.738;2023-04-24T12:00:18;0.30;;;0.20;;
74293;SDS011;64044;59.904;10.738;2023-04-24T12:02:46;0.50;;;0.30;;
74293;SDS011;64044;59.904;10.738;2023-04-24T12:07:56;0.50;;;0.25;;
74293;SDS011;64044;59.904;10.738;2023-04-24T12:10:31;0.30;;;0.30;;
74293;SDS011;64044;59.904;10.738;2023-04-24T12:12:58;1.27;;;0.85;;
74293;SDS011;64044;59.904;10.738;2023-04-24T12:15:25;0.63;;;0.52;;
74293;SDS011;64044;59.904;10.738;2023-04-24T12:17:51;0.65;;;0.32;;
74293;SDS011;64044;59.904;10.738;2023-04-24T12:20:23;0.28;;;0.28;;
74293;SDS011;64044;59.904;10.738;2023-04-24T12:22:54;0.73;;;0.40;;
74293;SDS011;64044;59.904;10.738;2023-04-24T12:25:27;0.35;;;0.35;;
74293;SDS011;64044;59.904;10.738;2023-04-24T12:30:30;0.43;;;0.30;;
74293;SDS011;64044;59.904;10.738;2023-04-24T12:32:59;2.38;;;0.60;;
74293;SDS011;64044;59.904;10.738;2023-04-24T12:35:27;0.30;;;0.20;;
74293;SDS011;64044;59.904;10.738;2023-04-24T12:37:55;0.43;;;0.43;;
74293;SDS011;64044;59.904;10.738;2023-04-24T12:40:21;0.57;;;0.38;;
74293;SDS011;64044;59.904;10.738;2023-04-24T12:42:50;1.38;;;0.47;;
74293;SDS011;64044;59.904;10.738;2023-04-24T12:45:17;0.45;;;0.35;;
74293;SDS011;64044;59.904;10.738;2023-04-24T12:47:44;0.55;;;0.50;;
74293;SDS011;64044;59.904;10.738;2023-04-24T12:50:11;1.15;;;0.60;;
74293;SDS011;64044;59.904;10.738;2023-04-24T12:52:39;3.75;;;1.20;;
74293;SDS011;64044;59.904;10.738;2023-04-24T12:55:05;2.33;;;0.80;;
74293;SDS011;64044;59.904;10.738;2023-04-24T12:57:33;2.45;;;0.73;;
74293;SDS011;64044;59.904;10.738;2023-04-24T13:00:00;1.70;;;1.05;;
74293;SDS011;64044;59.904;10.738;2023-04-24T13:02:29;3.08;;;0.73;;
74293;SDS011;64044;59.904;10.738;2023-04-24T13:04:56;0.68;;;0.30;;
74293;SDS011;64044;59.904;10.738;2023-04-24T13:07:26;3.17;;;0.95;;
74293;SDS011;64044;59.904;10.738;2023-04-24T13:09:52;1.73;;;0.60;;
74293;SDS011;64044;59.904;10.738;2023-04-24T13:12:19;2.63;;;1.17;;
74293;SDS011;64044;59.904;10.738;2023-04-24T13:14:45;1.45;;;0.93;;
74293;SDS011;64044;59.904;10.738;2023-04-24T13:17:11;2.10;;;0.80;;
74293;SDS011;64044;59.904;10.738;2023-04-24T13:19:41;2.22;;;0.47;;
74293;SDS011;64044;59.904;10.738;2023-04-24T13:22:09;0.70;;;0.50;;
74293;SDS011;64044;59.904;10.738;2023-04-24T13:24:37;0.20;;;0.20;;
74293;SDS011;64044;59.904;10.738;2023-04-24T13:27:04;1.45;;;0.95;;
74293;SDS011;64044;59.904;10.738;2023-04-24T13:29:30;0.98;;;0.70;;
74293;SDS011;64044;59.904;10.738;2023-04-24T13:31:56;3.35;;;1.35;;
74293;SDS011;64044;59.904;10.738;2023-04-24T13:34:22;4.28;;;1.10;;
74293;SDS011;64044;59.904;10.738;2023-04-24T13:36:53;1.50;;;0.57;;
74293;SDS011;64044;59.904;10.738;2023-04-24T13:39:20;1.75;;;0.82;;
74293;SDS011;64044;59.904;10.738;2023-04-24T13:41:46;1.38;;;0.75;;
74293;SDS011;64044;59.904;10.738;2023-04-24T13:44:13;1.35;;;0.73;;
74293;SDS011;64044;59.904;10.738;2023-04-24T13:46:40;1.80;;;0.55;;
74293;SDS011;64044;59.904;10.738;2023-04-24T13:49:06;1.40;;;0.70;;
74293;SDS011;64044;59.904;10.738;2023-04-24T13:51:32;2.45;;;0.70;;
74293;SDS011;64044;59.904;10.738;2023-04-24T13:53:58;1.38;;;0.93;;
74293;SDS011;64044;59.904;10.738;2023-04-24T13:56:24;0.95;;;0.68;;
74293;SDS011;64044;59.904;10.738;2023-04-24T13:58:51;2.22;;;0.95;;
74293;SDS011;64044;59.904;10.738;2023-04-24T14:01:18;3.60;;;1.38;;
74293;SDS011;64044;59.904;10.738;2023-04-24T14:03:45;1.42;;;0.80;;
74293;SDS011;64044;59.904;10.738;2023-04-24T14:06:11;1.10;;;0.73;;
74293;SDS011;64044;59.904;10.738;2023-04-24T14:08:37;1.45;;;0.60;;
74293;SDS011;64044;59.904;10.738;2023-04-24T14:11:02;0.60;;;0.60;;
74293;SDS011;64044;59.904;10.738;2023-04-24T14:13:29;1.20;;;0.65;;
74293;SDS011;64044;59.904;10.738;2023-04-24T14:15:55;1.20;;;0.60;;
74293;SDS011;64044;59.904;10.738;2023-04-24T14:18:20;2.08;;;0.77;;
74293;SDS011;64044;59.904;10.738;2023-04-24T14:20:46;0.98;;;0.55;;
74293;SDS011;64044;59.904;10.738;2023-04-24T14:23:12;0.75;;;0.52;;
74293;SDS011;64044;59.904;10.738;2023-04-24T14:25:37;0.88;;;0.65;;
74293;SDS011;64044;59.904;10.738;2023-04-24T14:28:03;0.47;;;0.47;;
74293;SDS011;64044;59.904;10.738;2023-04-24T14:30:30;0.80;;;0.60;;
74293;SDS011;64044;59.904;10.738;2023-04-24T14:32:56;0.47;;;0.47;;
74293;SDS011;64044;59.904;10.738;2023-04-24T14:35:21;0.88;;;0.50;;
74293;SDS011;64044;59.904;10.738;2023-04-24T14:37:47;0.55;;;0.52;;
74293;SDS011;64044;59.904;10.738;2023-04-24T14:40:14;1.08;;;0.68;;
74293;SDS011;64044;59.904;10.738;2023-04-24T14:42:40;0.52;;;0.50;;
74293;SDS011;64044;59.904;10.738;2023-04-24T14:45:05;0.50;;;0.40;;
74293;SDS011;64044;59.904;10.738;2023-04-24T14:47:32;0.75;;;0.52;;